Impacts TAF Board
For situational awareness. Not to be used for flight planning purposes.
IDs:

KIAH - Houston/Bush Intl, TX, US

Issued at 1500 UTC 24 Sep 2018
Updated at 1700 UTC 24 Sep 2018
Potential Impact None Slight Moderate High
Time1653Z 24/17Z 24/18Z 24/19Z 24/20Z 24/21Z 24/22Z 24/23Z 25/00Z 25/01Z 25/02Z 25/03Z 25/04Z 25/05Z>>
Type OBS PRVL PRVL PRVL PRVL PRVL PRVL PRVL PRVL PRVL PRVL PRVL PRVL PRVL
VIS 10 >6 >6 >6 >6 >6 >6 >6 >6 >6 >6 >6 >6 >6
CIG -- -- -- -- -- -- -- -- -- -- -- -- -- --
Cover SCT SCT SCT SCT SCT SCT SCT SCT SCT SCT SCT SCT SCT SCT
FltCat VFR VFR VFR VFR VFR VFR VFR VFR VFR VFR VFR VFR VFR VFR
WX -- -- -- -- -- -- -- -- -- -- -- -- -- --
WDir 200 VRB VRB 260 260 260 260 260 260 260 180 180 180 180
WSpd 7 3 3 6 6 6 6 6 6 6 4 4 4 4
WGst -- -- -- -- -- -- -- -- -- -- -- -- -- --
Raw TAF
KIAH 241500Z 2415/2518 VRB03KT P6SM FEW020 SCT060
  FM241900 26006KT P6SM SCT030 SCT250
  FM250200 18004KT P6SM SCT250
  FM251500 19006KT P6SM BKN025


Raw METAR
KIAH 241653Z 20007KT 10SM SCT035 SCT250 29/22 A2995 RMK AO2 SLP141 T02890217
KIAH 241553Z 28004KT 10SM FEW025 FEW250 28/22 A2996 RMK AO2 SLP144 T02780217
KIAH 241453Z VRB03KT 10SM FEW020 FEW055 27/22 A2995 RMK AO2 SLP142 T02670217 53010
KIAH 241353Z 00000KT 10SM FEW055 FEW250 25/22 A2994 RMK AO2 SLP138 T02500222

METAR Board
Radar Display
Forecast Discussion
For situational awareness. Not to be used for flight planning purposes.